createdAt,value
2023-01-15T00:02:07.968Z,66.80
2023-01-15T00:04:35.211Z,66.90
2023-01-15T00:07:05.051Z,66.90
2023-01-15T00:09:31.932Z,66.90
2023-01-15T00:11:58.946Z,67.10
2023-01-15T00:14:25.705Z,67.10
2023-01-15T00:16:53.308Z,67.20
2023-01-15T00:19:20.532Z,67.10
2023-01-15T00:21:47.426Z,67.20
2023-01-15T00:24:32.684Z,67.20
2023-01-15T00:27:17.876Z,67.50
2023-01-15T00:29:46.709Z,67.00
2023-01-15T00:32:13.493Z,68.20
2023-01-15T00:34:40.515Z,67.30
2023-01-15T00:37:07.251Z,67.30
2023-01-15T00:39:35.472Z,67.20
2023-01-15T00:42:02.857Z,67.00
2023-01-15T00:44:33.577Z,67.10
2023-01-15T00:47:00.533Z,67.30
2023-01-15T00:49:27.412Z,67.40
2023-01-15T00:51:54.363Z,67.30
2023-01-15T00:54:21.339Z,67.40
2023-01-15T00:56:48.051Z,67.70
2023-01-15T00:59:14.871Z,67.50
2023-01-15T01:01:42.355Z,67.60
2023-01-15T01:04:09.267Z,67.70
2023-01-15T01:06:36.085Z,68.60
2023-01-15T01:09:03.111Z,67.90
2023-01-15T01:11:34.311Z,67.70
2023-01-15T01:14:02.582Z,67.60
2023-01-15T01:16:38.590Z,67.70
2023-01-15T01:19:17.478Z,67.50
2023-01-15T01:21:45.516Z,67.40
2023-01-15T01:24:15.629Z,67.40
2023-01-15T01:26:45.475Z,67.10
2023-01-15T01:29:13.747Z,67.00
2023-01-15T01:31:40.693Z,67.60
2023-01-15T01:34:08.826Z,66.80
2023-01-15T01:36:37.847Z,66.90
2023-01-15T01:39:06.711Z,66.80
2023-01-15T01:41:34.403Z,66.60
2023-01-15T01:44:28.540Z,66.70
2023-01-15T01:46:55.330Z,66.70
2023-01-15T01:49:23.391Z,66.40
2023-01-15T01:52:03.959Z,66.30
2023-01-15T01:54:33.209Z,66.10
2023-01-15T01:57:00.481Z,66.20
2023-01-15T01:59:27.468Z,66.30
2023-01-15T02:01:54.685Z,66.00
2023-01-15T02:04:24.943Z,66.10
2023-01-15T02:06:52.411Z,66.10
2023-01-15T02:09:19.201Z,66.20
2023-01-15T02:11:45.979Z,66.00
2023-01-15T02:14:30.483Z,66.10
2023-01-15T02:17:29.301Z,65.90
2023-01-15T02:20:14.076Z,65.90
2023-01-15T02:23:06.183Z,66.00
2023-01-15T02:25:51.958Z,66.00
2023-01-15T02:28:27.197Z,66.00
2023-01-15T02:31:04.609Z,66.00
2023-01-15T02:33:41.215Z,66.10
2023-01-15T02:36:12.786Z,66.10
2023-01-15T02:38:44.877Z,65.90
2023-01-15T02:41:19.086Z,65.90
2023-01-15T02:43:52.713Z,65.80
2023-01-15T02:46:25.745Z,65.60
2023-01-15T02:48:56.222Z,65.50
2023-01-15T02:51:27.157Z,65.50
2023-01-15T02:53:57.849Z,65.40
2023-01-15T02:56:30.415Z,65.50
2023-01-15T02:59:02.236Z,65.50
2023-01-15T03:01:35.930Z,65.40
2023-01-15T03:04:28.141Z,65.30
2023-01-15T03:07:10.167Z,65.40
2023-01-15T03:09:38.579Z,65.30
2023-01-15T03:12:16.260Z,65.30
2023-01-15T03:15:08.222Z,65.50
2023-01-15T03:17:50.571Z,65.50
2023-01-15T03:20:22.399Z,65.30
2023-01-15T03:22:53.988Z,65.40
2023-01-15T03:25:28.999Z,65.40
2023-01-15T03:28:01.210Z,65.30
2023-01-15T03:30:29.327Z,65.30
2023-01-15T03:32:56.524Z,65.30
2023-01-15T03:36:02.908Z,65.20
2023-01-15T03:38:38.666Z,65.40
2023-01-15T03:41:41.211Z,65.50
2023-01-15T03:44:23.458Z,65.50
2023-01-15T03:47:05.970Z,65.40
2023-01-15T03:49:53.685Z,65.50
2023-01-15T03:52:57.911Z,65.20
2023-01-15T03:55:41.976Z,65.20
2023-01-15T03:58:25.570Z,65.30
2023-01-15T04:00:55.234Z,65.20
2023-01-15T04:03:25.190Z,65.20
2023-01-15T04:05:54.351Z,65.50
2023-01-15T04:08:22.345Z,65.60
2023-01-15T04:11:01.549Z,65.70
2023-01-15T04:13:32.150Z,65.70
2023-01-15T04:15:59.565Z,65.80
2023-01-15T04:18:26.530Z,65.90
2023-01-15T04:20:55.567Z,65.90
2023-01-15T04:23:22.903Z,65.90
2023-01-15T04:25:49.800Z,66.10
2023-01-15T04:28:16.528Z,66.10
2023-01-15T04:30:43.688Z,66.00
2023-01-15T04:33:11.134Z,66.10
2023-01-15T04:35:38.868Z,66.00
2023-01-15T04:38:05.655Z,66.00
2023-01-15T04:40:51.012Z,66.00
2023-01-15T04:43:36.578Z,66.10
2023-01-15T04:46:03.450Z,66.20
2023-01-15T04:48:31.476Z,66.30
2023-01-15T04:51:04.355Z,66.40
2023-01-15T04:53:31.118Z,66.60
2023-01-15T04:56:05.355Z,66.70
2023-01-15T04:58:32.793Z,66.80
2023-01-15T05:01:00.840Z,66.90
2023-01-15T05:03:28.757Z,67.00
2023-01-15T05:05:55.566Z,67.20
2023-01-15T05:08:22.275Z,67.40
2023-01-15T05:10:49.280Z,67.60
2023-01-15T05:13:16.012Z,67.50
2023-01-15T05:15:42.877Z,67.70
2023-01-15T05:18:09.973Z,67.70
2023-01-15T05:20:37.324Z,67.70
2023-01-15T05:23:04.044Z,67.70
2023-01-15T05:25:30.783Z,67.60
2023-01-15T05:27:57.670Z,67.60
2023-01-15T05:30:24.870Z,67.50
2023-01-15T05:32:51.729Z,67.40
2023-01-15T05:35:18.877Z,67.60
2023-01-15T05:37:45.576Z,67.50
2023-01-15T05:40:12.947Z,67.50
2023-01-15T05:42:39.658Z,67.40
2023-01-15T05:45:06.989Z,67.30
2023-01-15T05:47:35.696Z,67.10
2023-01-15T05:50:02.514Z,67.10
2023-01-15T05:52:29.202Z,67.20
2023-01-15T05:54:55.943Z,67.10
2023-01-15T05:57:22.649Z,66.90
2023-01-15T05:59:50.468Z,66.90
2023-01-15T06:02:17.207Z,66.90
2023-01-15T06:04:46.689Z,67.10
2023-01-15T06:07:14.498Z,67.10
2023-01-15T06:09:41.455Z,66.90
2023-01-15T06:12:08.205Z,66.60
2023-01-15T06:14:34.920Z,66.10
2023-01-15T06:17:01.868Z,66.10
2023-01-15T06:19:28.612Z,65.60
2023-01-15T06:21:55.367Z,65.30
2023-01-15T06:24:23.077Z,65.20
2023-01-15T06:26:49.877Z,65.10
2023-01-15T06:29:18.907Z,64.70
2023-01-15T06:31:46.216Z,64.70
2023-01-15T06:34:13.121Z,64.50
2023-01-15T06:36:39.951Z,64.30
2023-01-15T06:39:06.854Z,64.10
2023-01-15T06:41:52.121Z,64.20
2023-01-15T06:44:38.472Z,64.30
2023-01-15T06:47:31.574Z,64.50
2023-01-15T06:49:58.873Z,64.60
2023-01-15T06:52:28.186Z,64.40
2023-01-15T06:54:55.525Z,64.30
2023-01-15T06:57:22.660Z,64.30
2023-01-15T06:59:50.708Z,64.20
2023-01-15T07:02:18.436Z,64.10
2023-01-15T07:04:46.459Z,64.10
2023-01-15T07:07:14.116Z,64.00
2023-01-15T07:09:40.789Z,64.00
2023-01-15T07:12:07.543Z,64.00
2023-01-15T07:14:34.335Z,64.10
2023-01-15T07:17:01.059Z,64.10
2023-01-15T07:19:28.071Z,64.20
2023-01-15T07:21:55.217Z,64.30
2023-01-15T07:24:22.077Z,64.30
2023-01-15T07:26:49.021Z,64.20
2023-01-15T07:29:16.107Z,63.80
2023-01-15T07:31:43.159Z,63.60
2023-01-15T07:34:10.470Z,63.40
2023-01-15T07:36:37.970Z,63.40
2023-01-15T07:39:06.071Z,63.10
2023-01-15T07:41:52.117Z,63.00
2023-01-15T07:44:42.434Z,63.10
2023-01-15T07:47:38.273Z,63.30
2023-01-15T07:50:07.965Z,63.60
2023-01-15T07:52:35.059Z,63.80
2023-01-15T07:55:02.224Z,64.00
2023-01-15T07:57:29.052Z,64.10
2023-01-15T07:59:55.928Z,64.20
2023-01-15T08:02:22.866Z,64.40
2023-01-15T08:04:49.614Z,64.60
2023-01-15T08:07:16.796Z,64.80
2023-01-15T08:09:43.805Z,64.90
2023-01-15T08:12:30.062Z,65.00
2023-01-15T08:15:16.734Z,65.00
2023-01-15T08:17:46.310Z,64.80
2023-01-15T08:20:24.693Z,64.80
2023-01-15T08:22:51.798Z,64.60
2023-01-15T08:25:21.817Z,64.70
2023-01-15T08:27:49.023Z,64.50
2023-01-15T08:30:18.887Z,64.40
2023-01-15T08:32:45.960Z,64.40
2023-01-15T08:35:13.737Z,64.60
2023-01-15T08:37:41.937Z,65.10
2023-01-15T08:40:10.877Z,65.60
2023-01-15T08:42:37.757Z,66.10
2023-01-15T08:45:04.790Z,66.40
2023-01-15T08:47:32.472Z,66.60
2023-01-15T08:49:59.498Z,66.90
2023-01-15T08:52:26.503Z,66.90
2023-01-15T08:54:53.270Z,66.70
2023-01-15T08:57:20.057Z,66.70
2023-01-15T08:59:47.920Z,66.50
2023-01-15T09:02:15.535Z,66.50
2023-01-15T09:04:45.429Z,66.70
2023-01-15T09:07:12.930Z,66.80
2023-01-15T09:09:39.929Z,66.70
2023-01-15T09:12:07.033Z,66.90
2023-01-15T09:14:56.566Z,66.30
2023-01-15T09:17:20.685Z,66.00
2023-01-15T09:19:47.894Z,65.30
2023-01-15T09:22:14.736Z,64.90
2023-01-15T09:24:41.765Z,64.60
2023-01-15T09:27:11.673Z,64.30
2023-01-15T09:29:38.403Z,63.90
2023-01-15T09:32:05.785Z,63.30
2023-01-15T09:34:32.503Z,63.10
2023-01-15T09:37:02.713Z,64.40
2023-01-15T09:39:29.761Z,63.40
2023-01-15T09:42:09.611Z,62.60
2023-01-15T09:45:08.830Z,62.20
2023-01-15T09:48:00.686Z,62.10
2023-01-15T09:50:59.272Z,61.90
2023-01-15T09:53:51.287Z,62.10
2023-01-15T09:56:25.444Z,62.50
2023-01-15T09:58:53.359Z,62.10
2023-01-15T10:01:26.959Z,62.00
2023-01-15T10:04:01.987Z,62.50
2023-01-15T10:06:45.250Z,62.30
2023-01-15T10:09:20.493Z,62.50
2023-01-15T10:12:12.223Z,63.20
2023-01-15T10:15:07.119Z,63.00
2023-01-15T10:17:57.007Z,62.60
2023-01-15T10:21:07.468Z,62.10
2023-01-15T10:23:49.663Z,61.80
2023-01-15T10:26:40.423Z,61.10
2023-01-15T10:29:44.885Z,61.10
2023-01-15T10:32:27.126Z,60.70
2023-01-15T10:35:04.631Z,60.90
2023-01-15T10:37:43.354Z,60.80
2023-01-15T10:40:44.630Z,61.10
2023-01-15T10:43:15.779Z,61.20
2023-01-15T10:45:54.058Z,61.20
2023-01-15T10:48:51.868Z,61.50
2023-01-15T10:51:29.085Z,61.80
2023-01-15T10:54:08.121Z,61.80
2023-01-15T10:56:35.024Z,62.10
2023-01-15T10:59:30.973Z,62.30
2023-01-15T11:01:59.492Z,62.50
2023-01-15T11:04:31.523Z,62.70
2023-01-15T11:07:00.615Z,62.40
2023-01-15T11:09:32.257Z,62.40
2023-01-15T11:12:19.132Z,62.80
2023-01-15T11:15:06.272Z,63.40
2023-01-15T11:18:01.621Z,63.20
2023-01-15T11:20:34.760Z,64.50
2023-01-15T11:23:10.412Z,63.70
2023-01-15T11:25:44.396Z,63.40
2023-01-15T11:28:15.272Z,63.60
2023-01-15T11:30:42.049Z,63.50
2023-01-15T11:33:27.913Z,63.60
2023-01-15T11:35:58.514Z,64.50
2023-01-15T11:38:31.274Z,64.50
2023-01-15T11:41:04.830Z,64.70
2023-01-15T11:43:50.634Z,65.00
2023-01-15T11:46:46.182Z,65.10
2023-01-15T11:49:36.390Z,65.70
2023-01-15T11:52:06.705Z,66.00
2023-01-15T11:54:42.470Z,66.60
2023-01-15T11:57:23.322Z,66.30
2023-01-15T11:59:50.562Z,66.40
2023-01-15T12:02:45.236Z,66.60
2023-01-15T12:05:21.053Z,66.60
2023-01-15T12:07:50.779Z,66.20
2023-01-15T12:11:21.356Z,66.20
2023-01-15T12:14:09.091Z,65.80
2023-01-15T12:17:00.565Z,66.90
2023-01-15T12:19:50.092Z,67.70
2023-01-15T12:22:53.111Z,68.20
2023-01-15T12:25:39.907Z,68.20
2023-01-15T12:28:14.892Z,68.20
2023-01-15T12:30:45.573Z,68.10
2023-01-15T12:33:25.235Z,68.10
2023-01-15T12:36:03.895Z,68.40
2023-01-15T12:38:47.745Z,68.70
2023-01-15T12:41:53.703Z,69.50
2023-01-15T12:44:45.761Z,69.70
2023-01-15T12:47:16.734Z,70.40
2023-01-15T12:50:04.119Z,70.50
2023-01-15T12:52:39.028Z,70.40
2023-01-15T12:55:29.118Z,70.20
2023-01-15T12:58:00.048Z,70.10
2023-01-15T13:00:42.107Z,70.60
2023-01-15T13:03:19.672Z,70.60
2023-01-15T13:05:48.321Z,70.70
2023-01-15T13:08:38.067Z,70.50
2023-01-15T13:11:06.398Z,70.20
2023-01-15T13:13:41.791Z,70.00
2023-01-15T13:16:49.748Z,70.10
2023-01-15T13:19:40.151Z,70.30
2023-01-15T13:22:21.812Z,70.80
2023-01-15T13:25:27.237Z,71.20
2023-01-15T13:28:33.754Z,71.00
2023-01-15T13:31:16.726Z,70.90
2023-01-15T13:33:50.679Z,70.70
2023-01-15T13:36:25.970Z,70.80
2023-01-15T13:38:56.003Z,70.80
2023-01-15T13:41:45.901Z,71.50
2023-01-15T13:44:23.721Z,70.90
2023-01-15T13:47:12.933Z,71.00
2023-01-15T13:49:46.469Z,71.00
2023-01-15T13:52:37.401Z,71.00
2023-01-15T13:55:21.321Z,71.30
2023-01-15T13:57:51.756Z,71.40
2023-01-15T14:00:40.060Z,71.70
2023-01-15T14:03:31.451Z,71.80
2023-01-15T14:06:09.401Z,71.70
2023-01-15T14:08:44.220Z,71.30
2023-01-15T14:11:39.569Z,71.10
2023-01-15T14:14:24.348Z,71.10
2023-01-15T14:17:04.995Z,70.80
2023-01-15T14:19:46.981Z,70.80
2023-01-15T14:22:27.022Z,70.80
2023-01-15T14:25:12.769Z,70.80
2023-01-15T14:28:08.690Z,70.30
2023-01-15T14:30:56.037Z,70.00
2023-01-15T14:34:01.179Z,69.90
2023-01-15T14:36:30.561Z,69.80
2023-01-15T14:39:00.400Z,69.90
2023-01-15T14:41:59.621Z,70.20
2023-01-15T14:44:29.903Z,70.40
2023-01-15T14:47:01.236Z,70.60
2023-01-15T14:49:29.729Z,70.70
2023-01-15T14:51:57.847Z,70.60
2023-01-15T14:54:25.335Z,70.50
2023-01-15T14:56:57.042Z,70.50
2023-01-15T14:59:27.861Z,70.50
2023-01-15T15:02:02.631Z,70.30
2023-01-15T15:04:49.054Z,70.00
2023-01-15T15:07:55.807Z,69.90
2023-01-15T15:10:43.769Z,69.70
2023-01-15T15:13:37.118Z,69.40
2023-01-15T15:16:25.440Z,69.10
2023-01-15T15:19:06.535Z,69.20
2023-01-15T15:21:39.106Z,69.40
2023-01-15T15:24:15.435Z,68.90
2023-01-15T15:26:42.368Z,68.60
2023-01-15T15:29:17.521Z,67.90
2023-01-15T15:32:03.613Z,68.80
2023-01-15T15:34:40.540Z,69.80
2023-01-15T15:37:22.938Z,70.50
2023-01-15T15:40:03.441Z,71.60
2023-01-15T15:43:02.546Z,72.50
2023-01-15T15:45:49.276Z,72.20
2023-01-15T15:48:42.619Z,71.00
2023-01-15T15:51:46.507Z,70.00
2023-01-15T15:54:19.635Z,69.90
2023-01-15T15:57:09.636Z,70.50
2023-01-15T15:59:45.971Z,71.20
2023-01-15T16:02:22.081Z,71.90
2023-01-15T16:04:50.129Z,72.30
2023-01-15T16:07:26.959Z,72.50
2023-01-15T16:10:02.473Z,72.60
2023-01-15T16:12:33.614Z,72.70
2023-01-15T16:15:01.591Z,72.80
2023-01-15T16:17:28.704Z,72.90
2023-01-15T16:19:57.283Z,73.10
2023-01-15T16:22:24.509Z,73.30
2023-01-15T16:24:58.255Z,73.20
2023-01-15T16:27:33.528Z,73.10
2023-01-15T16:30:00.416Z,73.10
2023-01-15T16:32:32.061Z,72.90
2023-01-15T16:35:08.276Z,72.90
2023-01-15T16:37:35.937Z,72.90
2023-01-15T16:40:05.133Z,72.70
2023-01-15T16:42:40.086Z,72.40
2023-01-15T16:45:25.525Z,72.30
2023-01-15T16:48:02.388Z,72.30
2023-01-15T16:50:32.345Z,72.60
2023-01-15T16:53:01.996Z,72.80
2023-01-15T16:55:36.540Z,72.40
2023-01-15T16:58:12.553Z,72.30
2023-01-15T17:00:45.001Z,72.10
2023-01-15T17:03:20.889Z,72.20
2023-01-15T17:05:52.593Z,72.10
2023-01-15T17:08:22.819Z,71.90
2023-01-15T17:11:03.459Z,71.90
2023-01-15T17:13:40.725Z,71.80
2023-01-15T17:16:24.279Z,72.60
2023-01-15T17:18:51.985Z,72.00
2023-01-15T17:21:23.333Z,72.00
2023-01-15T17:23:50.950Z,72.10
2023-01-15T17:26:23.817Z,72.00
2023-01-15T17:28:50.555Z,71.70
2023-01-15T17:31:23.516Z,71.90
2023-01-15T17:33:50.908Z,72.00
2023-01-15T17:36:18.501Z,71.90
2023-01-15T17:38:45.352Z,71.90
2023-01-15T17:41:13.832Z,72.00
2023-01-15T17:43:40.570Z,72.10
2023-01-15T17:46:08.212Z,72.00
2023-01-15T17:48:35.375Z,71.80
2023-01-15T17:51:04.103Z,71.90
2023-01-15T17:53:35.957Z,71.80
2023-01-15T17:56:22.673Z,71.60
2023-01-15T17:59:09.863Z,71.50
2023-01-15T18:01:59.728Z,71.40
2023-01-15T18:04:50.733Z,71.40
2023-01-15T18:07:21.757Z,71.40
2023-01-15T18:09:53.200Z,71.50
2023-01-15T18:12:20.223Z,71.50
2023-01-15T18:14:47.043Z,71.60
2023-01-15T18:17:13.961Z,71.40
2023-01-15T18:19:40.775Z,71.20
2023-01-15T18:22:07.584Z,71.20
2023-01-15T18:24:34.412Z,71.10
2023-01-15T18:27:01.168Z,71.00
2023-01-15T18:29:28.028Z,71.10
2023-01-15T18:31:54.809Z,71.20
2023-01-15T18:34:22.281Z,71.10
2023-01-15T18:36:49.057Z,71.00
2023-01-15T18:39:16.057Z,71.00
2023-01-15T18:41:43.130Z,70.90
2023-01-15T18:44:36.895Z,70.90
2023-01-15T18:47:08.441Z,70.90
2023-01-15T18:49:36.519Z,70.80
2023-01-15T18:52:25.650Z,70.90
2023-01-15T18:54:53.032Z,71.00
2023-01-15T18:57:20.618Z,70.90
2023-01-15T18:59:47.947Z,71.00
2023-01-15T19:02:20.036Z,70.90
2023-01-15T19:04:47.945Z,70.90
2023-01-15T19:07:14.849Z,70.90
2023-01-15T19:09:41.727Z,71.00
2023-01-15T19:12:11.767Z,71.00
2023-01-15T19:14:56.938Z,71.10
2023-01-15T19:17:46.127Z,70.90
2023-01-15T19:20:16.150Z,70.90
2023-01-15T19:22:58.953Z,70.90
2023-01-15T19:25:39.957Z,70.90
2023-01-15T19:28:09.236Z,70.80
2023-01-15T19:30:41.428Z,70.90
2023-01-15T19:33:09.820Z,71.00
2023-01-15T19:35:40.923Z,70.90
2023-01-15T19:38:08.523Z,71.10
2023-01-15T19:40:40.710Z,71.10
2023-01-15T19:43:27.991Z,71.20
2023-01-15T19:46:13.330Z,71.20
2023-01-15T19:48:59.216Z,71.20
2023-01-15T19:51:44.771Z,71.20
2023-01-15T19:54:11.598Z,71.30
2023-01-15T19:56:38.331Z,71.30
2023-01-15T19:59:07.197Z,71.30
2023-01-15T20:01:34.040Z,71.30
2023-01-15T20:04:02.757Z,71.20
2023-01-15T20:06:35.682Z,71.10
2023-01-15T20:09:03.943Z,71.10
2023-01-15T20:11:52.443Z,71.20
2023-01-15T20:14:19.282Z,71.20
2023-01-15T20:16:46.035Z,71.30
2023-01-15T20:19:12.781Z,71.50
2023-01-15T20:21:39.578Z,71.60
2023-01-15T20:24:06.962Z,71.60
2023-01-15T20:26:33.733Z,71.70
2023-01-15T20:29:00.529Z,71.80
2023-01-15T20:31:29.910Z,71.80
2023-01-15T20:33:58.718Z,71.80
2023-01-15T20:36:25.483Z,71.80
2023-01-15T20:38:52.201Z,71.80
2023-01-15T20:41:40.455Z,71.70
2023-01-15T20:44:25.821Z,71.70
2023-01-15T20:46:52.633Z,71.60
2023-01-15T20:49:27.399Z,71.60
2023-01-15T20:51:55.959Z,71.50
2023-01-15T20:54:24.225Z,71.40
2023-01-15T20:56:51.159Z,71.50
2023-01-15T20:59:18.090Z,71.70
2023-01-15T21:01:45.020Z,71.80
2023-01-15T21:04:13.618Z,71.90
2023-01-15T21:06:40.641Z,72.20
2023-01-15T21:09:07.603Z,72.40
2023-01-15T21:11:34.350Z,72.60
2023-01-15T21:14:01.165Z,72.60
2023-01-15T21:16:28.101Z,72.60
2023-01-15T21:18:55.009Z,72.50
2023-01-15T21:21:22.267Z,72.50
2023-01-15T21:23:49.181Z,72.50
2023-01-15T21:26:19.510Z,72.50
2023-01-15T21:28:46.291Z,72.60
2023-01-15T21:31:14.718Z,72.60
2023-01-15T21:33:41.775Z,72.70
2023-01-15T21:36:10.555Z,73.00
2023-01-15T21:38:37.366Z,73.10
2023-01-15T21:41:14.332Z,73.20
2023-01-15T21:44:18.298Z,73.30
2023-01-15T21:46:45.257Z,73.40
2023-01-15T21:49:11.974Z,73.30
2023-01-15T21:51:38.716Z,73.30
2023-01-15T21:54:05.590Z,73.20
2023-01-15T21:56:32.465Z,73.00
2023-01-15T21:58:59.357Z,72.80
2023-01-15T22:01:26.402Z,72.60
2023-01-15T22:03:53.196Z,72.50
2023-01-15T22:06:19.947Z,72.50
2023-01-15T22:08:46.676Z,72.50
2023-01-15T22:11:13.478Z,72.50
2023-01-15T22:13:48.312Z,72.30
2023-01-15T22:16:16.706Z,72.20
2023-01-15T22:18:43.485Z,72.00
2023-01-15T22:21:15.604Z,72.00
2023-01-15T22:23:43.214Z,71.90
2023-01-15T22:26:21.060Z,71.90
2023-01-15T22:28:48.314Z,71.80
2023-01-15T22:31:17.704Z,71.90
2023-01-15T22:33:45.855Z,71.90
2023-01-15T22:36:14.668Z,71.70
2023-01-15T22:38:41.934Z,71.70
2023-01-15T22:41:09.019Z,71.70
2023-01-15T22:43:36.178Z,71.70
2023-01-15T22:46:14.385Z,71.90
2023-01-15T22:48:41.205Z,72.00
2023-01-15T22:51:08.088Z,72.10
2023-01-15T22:53:36.104Z,72.00
2023-01-15T22:56:03.112Z,72.10
2023-01-15T22:58:30.020Z,72.20
2023-01-15T23:00:57.187Z,72.10
2023-01-15T23:03:26.159Z,72.10
2023-01-15T23:05:52.926Z,71.90
2023-01-15T23:08:19.640Z,71.80
2023-01-15T23:10:47.487Z,71.80
2023-01-15T23:13:14.321Z,71.80
2023-01-15T23:15:41.188Z,72.10
2023-01-15T23:18:08.019Z,71.90
2023-01-15T23:20:37.499Z,71.70
2023-01-15T23:23:04.358Z,71.60
2023-01-15T23:25:31.734Z,71.80
2023-01-15T23:27:58.479Z,71.90
2023-01-15T23:30:25.860Z,72.00
2023-01-15T23:32:52.720Z,72.10
2023-01-15T23:35:22.552Z,72.30
2023-01-15T23:37:49.564Z,72.30
2023-01-15T23:40:16.597Z,72.20
2023-01-15T23:43:02.093Z,72.30
2023-01-15T23:45:47.287Z,72.30
2023-01-15T23:48:14.111Z,72.40
2023-01-15T23:50:40.896Z,72.60
2023-01-15T23:53:07.674Z,72.70
2023-01-15T23:55:34.390Z,72.80
2023-01-15T23:58:01.099Z,72.90
